Time;durP1;ratioP1;P1;durP2;ratioP2;P2;SDS_P1;SDS_P2;PMS_P1;PMS_P2;Temp;Humidity;BMP_temperature;BMP_pressure;BME280_temperature;BME280_humidity;BME280_pressure;Samples;Min_cycle;Max_cycle;Signal;HPM_P1;HPM_P2
2023/07/21 00:01:03;;;;;;;11.20;5.43;;;640.60;1843.20;;;;;;5035373;28;20029;-73
2023/07/21 00:03:30;;;;;;;13.68;6.07;;;640.60;1843.20;;;;;;5029353;28;20021;-71
2023/07/21 00:05:57;;;;;;;11.52;5.18;;;640.60;1843.20;;;;;;5035856;28;20508;-70
2023/07/21 00:08:26;;;;;;;13.13;5.25;;;640.60;1843.20;;;;;;5031617;28;20040;-70
2023/07/21 00:10:51;;;;;;;10.63;4.47;;;640.60;1817.60;;;;;;5035431;28;20025;-71
2023/07/21 00:13:17;;;;;;;12.45;5.07;;;640.60;1817.60;;;;;;5035424;28;20048;-69
2023/07/21 00:15:45;;;;;;;9.18;5.18;;;640.50;1817.60;;;;;;5035165;28;20116;-74
2023/07/21 00:18:12;;;;;;;8.30;4.45;;;640.50;1843.20;;;;;;5033850;28;20482;-70
2023/07/21 00:20:38;;;;;;;13.75;4.30;;;640.50;1843.20;;;;;;5035254;28;20045;-70
2023/07/21 00:23:04;;;;;;;11.25;3.78;;;640.50;1817.60;;;;;;5035017;28;20037;-70
2023/07/21 00:25:30;;;;;;;12.65;4.15;;;640.60;1817.60;;;;;;5035352;28;20529;-70
2023/07/21 00:27:55;;;;;;;10.05;5.00;;;640.60;1817.60;;;;;;5035222;28;20022;-71
2023/07/21 00:30:22;;;;;;;14.48;4.45;;;640.60;1817.60;;;;;;5034934;28;20053;-71
2023/07/21 00:32:47;;;;;;;8.90;3.63;;;640.60;1817.60;;;;;;5034720;28;21433;-70
2023/07/21 00:35:13;;;;;;;9.15;3.45;;;640.60;1817.60;;;;;;5034969;28;20068;-74
2023/07/21 00:37:39;;;;;;;8.32;3.40;;;640.50;1843.20;;;;;;5024572;28;20080;-70
2023/07/21 00:40:18;;;;;;;8.10;5.05;;;640.40;1843.20;;;;;;5034548;28;20108;-72
2023/07/21 00:42:45;;;;;;;8.93;3.67;;;640.40;1868.80;;;;;;5033495;28;20033;-70
2023/07/21 00:45:13;;;;;;;9.30;3.67;;;640.40;1868.80;;;;;;5034604;28;20056;-71
2023/07/21 00:47:39;;;;;;;12.82;3.42;;;640.30;1843.20;;;;;;5034357;28;20033;-70
2023/07/21 00:50:06;;;;;;;10.55;3.20;;;640.30;1843.20;;;;;;5027487;28;20426;-73
2023/07/21 00:52:32;;;;;;;6.38;3.42;;;640.30;1843.20;;;;;;5034403;28;20407;-70
2023/07/21 00:54:57;;;;;;;6.47;2.90;;;640.30;1843.20;;;;;;5034546;28;20035;-70
2023/07/21 00:57:24;;;;;;;6.65;3.17;;;640.30;1843.20;;;;;;5034277;28;20079;-72
2023/07/21 00:59:50;;;;;;;12.50;3.53;;;640.30;1843.20;;;;;;5034538;28;20040;-71
2023/07/21 01:02:17;;;;;;;11.15;3.70;;;640.30;1817.60;;;;;;5034012;28;20536;-71
2023/07/21 01:04:44;;;;;;;9.23;3.13;;;640.30;1817.60;;;;;;5034215;28;20026;-73
2023/07/21 01:07:10;;;;;;;10.88;3.58;;;640.20;1817.60;;;;;;5034343;28;20032;-70
2023/07/21 01:09:38;;;;;;;8.70;3.08;;;640.30;1817.60;;;;;;5031257;28;20029;-71
2023/07/21 01:12:07;;;;;;;9.07;3.88;;;640.30;1817.60;;;;;;5033991;28;20025;-75
2023/07/21 01:14:35;;;;;;;8.88;2.80;;;640.30;1817.60;;;;;;5031757;28;20045;-72
2023/07/21 01:17:02;;;;;;;8.05;2.88;;;640.30;1843.20;;;;;;5032812;28;20397;-72
2023/07/21 01:19:29;;;;;;;6.85;3.45;;;640.20;1843.20;;;;;;5033822;28;20035;-70
2023/07/21 01:22:08;;;;;;;13.00;3.78;;;640.20;1843.20;;;;;;5033949;28;20030;-72
2023/07/21 01:24:43;;;;;;;8.93;3.55;;;640.20;1843.20;;;;;;5032736;28;20119;-70
2023/07/21 01:27:11;;;;;;;;;;;640.20;1843.20;;;;;;5028675;28;20030;-69
2023/07/21 01:29:41;;;;;;;9.25;3.33;;;640.10;1843.20;;;;;;5033814;28;20330;-70
2023/07/21 01:32:10;;;;;;;10.40;4.05;;;640.00;1868.80;;;;;;5033414;28;20025;-72
2023/07/21 01:34:37;;;;;;;8.45;3.65;;;640.00;1894.40;;;;;;5033541;28;20029;-72
2023/07/21 01:37:05;;;;;;;10.02;3.95;;;640.00;1894.40;;;;;;5033296;28;20084;-69
2023/07/21 01:39:34;;;;;;;7.57;3.42;;;615.30;1920.00;;;;;;5033473;28;20025;-70
2023/07/21 01:42:00;;;;;;;8.18;3.47;;;615.30;1920.00;;;;;;5031182;28;20483;-70
2023/07/21 01:44:26;;;;;;;11.20;3.55;;;615.20;1945.60;;;;;;5034015;28;20021;-70
2023/07/21 01:46:54;;;;;;;8.82;3.97;;;615.20;1971.20;;;;;;5016440;28;20386;-71
2023/07/21 01:49:20;;;;;;;7.35;3.50;;;615.00;2022.40;;;;;;5014267;28;20022;-71
2023/07/21 01:51:50;;;;;;;9.93;3.33;;;614.90;1996.80;;;;;;5030480;28;20036;-70
2023/07/21 01:54:42;;;;;;;8.35;3.20;;;614.90;1996.80;;;;;;5034193;28;20017;-72
2023/07/21 01:57:12;;;;;;;7.18;3.45;;;614.90;2022.40;;;;;;5034019;28;20512;-71
2023/07/21 01:59:43;;;;;;;7.57;3.95;;;614.80;2022.40;;;;;;5034084;28;20401;-71
2023/07/21 02:02:10;;;;;;;12.07;3.65;;;614.80;2022.40;;;;;;5033893;28;20548;-70
2023/07/21 02:04:36;;;;;;;8.07;3.40;;;614.70;2048.00;;;;;;5033613;28;20482;-70
2023/07/21 02:07:01;;;;;;;5.60;3.45;;;614.70;2073.60;;;;;;5033910;28;20037;-70
2023/07/21 02:09:27;;;;;;;10.27;3.90;;;614.60;2073.60;;;;;;5033475;28;20036;-72
2023/07/21 02:11:53;;;;;;;9.25;4.18;;;614.40;2124.80;;;;;;5033746;28;20017;-71
2023/07/21 02:14:18;;;;;;;9.82;4.07;;;614.50;2124.80;;;;;;5033125;28;20119;-71
2023/07/21 02:16:44;;;;;;;15.18;3.67;;;614.40;2124.80;;;;;;5033733;28;20502;-70
2023/07/21 02:19:10;;;;;;;9.15;3.83;;;589.70;2176.00;;;;;;5015581;28;20036;-73
2023/07/21 02:21:35;;;;;;;10.65;3.90;;;589.60;2176.00;;;;;;5033419;28;20038;-73
2023/07/21 02:24:01;;;;;;;10.02;3.85;;;589.60;2176.00;;;;;;5033723;28;20025;-72
2023/07/21 02:26:27;;;;;;;6.45;4.15;;;589.40;2278.40;;;;;;5033551;28;20487;-71
2023/07/21 02:28:53;;;;;;;12.98;4.32;;;589.10;2329.60;;;;;;5033326;28;20083;-71
2023/07/21 02:31:21;;;;;;;12.57;4.43;;;589.00;2406.40;;;;;;5033459;28;20479;-71
2023/07/21 02:33:47;;;;;;;12.05;4.53;;;589.00;2432.00;;;;;;5033377;28;20026;-70
2023/07/21 02:36:13;;;;;;;9.88;3.72;;;588.90;2432.00;;;;;;5033178;28;20025;-75
2023/07/21 02:38:39;;;;;;;11.00;4.75;;;588.90;2432.00;;;;;;5033322;28;20017;-71
2023/07/21 02:41:05;;;;;;;7.28;4.68;;;564.10;2432.00;;;;;;5033368;28;20083;-71
2023/07/21 02:43:34;;;;;;;10.65;4.35;;;564.10;2432.00;;;;;;5033292;28;20033;-70
2023/07/21 02:46:01;;;;;;;11.65;4.30;;;563.80;2432.00;;;;;;5033306;28;20025;-73
2023/07/21 02:48:28;;;;;;;8.18;3.83;;;563.60;2432.00;;;;;;5033218;28;20052;-71
2023/07/21 02:50:58;;;;;;;14.05;4.13;;;563.60;2432.00;;;;;;5032906;28;20475;-70
2023/07/21 02:53:24;;;;;;;6.25;4.00;;;563.60;2432.00;;;;;;5033496;28;20439;-70
2023/07/21 02:55:50;;;;;;;14.25;4.55;;;563.50;2432.00;;;;;;5033363;28;20032;-71
2023/07/21 02:58:17;;;;;;;12.25;4.88;;;563.50;2432.00;;;;;;5033219;28;20025;-70
2023/07/21 03:00:43;;;;;;;9.23;4.63;;;563.40;2432.00;;;;;;5032860;28;20033;-70
2023/07/21 03:03:15;;;;;;;13.80;4.85;;;563.40;2432.00;;;;;;5032354;28;20124;-72
2023/07/21 03:05:41;;;;;;;9.32;5.18;;;563.50;2432.00;;;;;;5032279;28;20017;-70
2023/07/21 03:08:08;;;;;;;13.57;5.63;;;563.60;2432.00;;;;;;5032312;28;20033;-71
2023/07/21 03:10:34;;;;;;;15.25;6.35;;;563.60;2432.00;;;;;;5032351;28;20017;-71
2023/07/21 03:12:59;;;;;;;14.88;5.75;;;563.50;2432.00;;;;;;5032248;28;20135;-71
2023/07/21 03:15:25;;;;;;;16.08;6.82;;;563.60;2432.00;;;;;;5032399;28;20029;-70
2023/07/21 03:17:52;;;;;;;13.45;5.97;;;563.60;2432.00;;;;;;5032264;28;20030;-71
2023/07/21 03:20:17;;;;;;;13.30;6.72;;;563.70;2432.00;;;;;;5032168;28;20025;-71
2023/07/21 03:22:44;;;;;;;11.85;7.03;;;563.80;2432.00;;;;;;5032307;28;20037;-70
2023/07/21 03:25:13;;;;;;;11.68;6.50;;;563.80;2432.00;;;;;;5034710;28;20021;-72
2023/07/21 03:27:42;;;;;;;12.63;6.95;;;563.80;2432.00;;;;;;5036375;28;20387;-71
2023/07/21 03:30:09;;;;;;;11.73;6.97;;;563.70;2432.00;;;;;;5036146;28;20025;-71
2023/07/21 03:32:36;;;;;;;13.93;6.55;;;563.80;2432.00;;;;;;5036228;28;20029;-72
2023/07/21 03:35:05;;;;;;;13.65;5.57;;;563.70;2432.00;;;;;;5035888;28;20033;-70
2023/07/21 03:37:34;;;;;;;10.60;6.40;;;563.70;2432.00;;;;;;5036194;28;20049;-71
2023/07/21 03:40:06;;;;;;;12.90;7.30;;;563.50;2432.00;;;;;;5035844;28;20438;-73
2023/07/21 03:42:32;;;;;;;14.55;7.47;;;;;;;;;;5035791;28;20407;-71
2023/07/21 03:44:58;;;;;;;13.40;6.28;;;538.50;2406.40;;;;;;5035897;28;20025;-71
2023/07/21 03:47:24;;;;;;;12.90;6.93;;;563.20;2432.00;;;;;;5035788;28;20029;-70
2023/07/21 03:49:50;;;;;;;12.02;6.07;;;563.40;2432.00;;;;;;5035600;28;20082;-71
2023/07/21 03:52:18;;;;;;;14.88;6.88;;;563.40;2432.00;;;;;;5036041;28;20071;-70
2023/07/21 03:54:43;;;;;;;15.77;6.53;;;563.30;2432.00;;;;;;5035720;28;20434;-71
2023/07/21 03:57:10;;;;;;;20.27;7.10;;;563.20;2432.00;;;;;;5035624;28;20058;-71
2023/07/21 03:59:38;;;;;;;10.35;5.80;;;563.20;2432.00;;;;;;5035626;28;20021;-71
2023/07/21 04:02:04;;;;;;;16.35;6.97;;;563.20;2432.00;;;;;;5035476;28;20025;-71
2023/07/21 04:04:32;;;;;;;17.20;8.18;;;563.20;2432.00;;;;;;5035567;28;20021;-71
2023/07/21 04:07:01;;;;;;;12.93;6.95;;;563.20;2432.00;;;;;;5035457;28;20036;-70
2023/07/21 04:09:27;;;;;;;11.60;6.53;;;563.40;2432.00;;;;;;5015912;28;20527;-70
2023/07/21 04:11:53;;;;;;;13.32;7.43;;;563.40;2432.00;;;;;;5034439;28;20072;-71
2023/07/21 04:14:19;;;;;;;11.30;5.97;;;563.50;2432.00;;;;;;5034765;28;20053;-71
2023/07/21 04:16:45;;;;;;;13.70;6.80;;;563.60;2432.00;;;;;;5035045;28;20029;-70
2023/07/21 04:19:11;;;;;;;11.02;6.18;;;563.60;2432.00;;;;;;5034933;28;20022;-70
2023/07/21 04:21:37;;;;;;;10.80;6.07;;;563.60;2432.00;;;;;;5017003;28;20407;-70
2023/07/21 04:24:03;;;;;;;16.27;6.32;;;563.80;2432.00;;;;;;5035496;28;20033;-70
2023/07/21 04:26:29;;;;;;;10.90;6.70;;;563.80;2432.00;;;;;;5035236;28;20360;-70
2023/07/21 04:28:55;;;;;;;13.00;5.55;;;564.00;2432.00;;;;;;5034771;28;20033;-72
2023/07/21 04:31:22;;;;;;;13.45;6.10;;;564.00;2432.00;;;;;;5034788;28;20067;-70
2023/07/21 04:33:49;;;;;;;14.18;6.50;;;564.10;2432.00;;;;;;5034225;28;20026;-70
2023/07/21 04:36:14;;;;;;;10.00;5.90;;;564.10;2432.00;;;;;;5034383;28;20022;-69
2023/07/21 04:38:40;;;;;;;14.15;6.63;;;564.00;2432.00;;;;;;5030127;28;20601;-71
2023/07/21 04:41:06;;;;;;;12.02;6.75;;;563.60;2432.00;;;;;;5030614;28;20087;-71
2023/07/21 04:43:32;;;;;;;8.90;5.63;;;563.70;2432.00;;;;;;5034292;28;20045;-70
2023/07/21 04:45:57;;;;;;;11.60;5.15;;;563.80;2432.00;;;;;;5032303;28;20453;-71
2023/07/21 04:48:23;;;;;;;10.35;6.38;;;564.00;2432.00;;;;;;5034564;28;20030;-70
2023/07/21 04:50:52;;;;;;;9.02;5.50;;;563.90;2432.00;;;;;;5034231;28;20589;-72
2023/07/21 04:53:18;;;;;;;13.02;5.85;;;563.80;2432.00;;;;;;5030746;28;20556;-70
2023/07/21 04:55:44;;;;;;;11.52;7.20;;;564.10;2432.00;;;;;;5033920;28;20053;-70
2023/07/21 04:58:09;;;;;;;11.68;6.97;;;588.80;2432.00;;;;;;5034776;28;20021;-70
2023/07/21 05:00:35;;;;;;;14.73;6.55;;;588.80;2432.00;;;;;;5034317;28;20029;-71
2023/07/21 05:03:01;;;;;;;18.55;7.20;;;589.00;2432.00;;;;;;5034381;28;20136;-70
2023/07/21 05:05:27;;;;;;;12.45;6.90;;;588.90;2432.00;;;;;;5034430;28;20029;-71
2023/07/21 05:07:54;;;;;;;9.93;6.60;;;589.00;2432.00;;;;;;5034137;28;20467;-71
2023/07/21 05:10:20;;;;;;;14.43;6.60;;;589.10;2432.00;;;;;;5034761;28;20033;-69
2023/07/21 05:12:46;;;;;;;15.18;6.30;;;589.30;2432.00;;;;;;5034040;28;20033;-72
2023/07/21 05:15:13;;;;;;;13.18;8.60;;;589.30;2432.00;;;;;;5034066;28;20499;-72
2023/07/21 05:17:40;;;;;;;11.95;7.68;;;589.30;2432.00;;;;;;5031301;28;20083;-70
2023/07/21 05:20:07;;;;;;;13.40;8.43;;;589.40;2432.00;;;;;;5029852;28;20105;-71
2023/07/21 05:22:33;;;;;;;17.50;8.68;;;589.20;2432.00;;;;;;5033255;28;20042;-71
2023/07/21 05:24:59;;;;;;;14.20;9.32;;;589.20;2432.00;;;;;;5034580;28;20021;-70
2023/07/21 05:27:24;;;;;;;16.02;9.57;;;589.30;2432.00;;;;;;5033800;28;20521;-69
2023/07/21 05:29:50;;;;;;;19.80;8.98;;;589.60;2432.00;;;;;;5033665;28;20498;-75
2023/07/21 05:32:16;;;;;;;14.30;8.68;;;589.70;2432.00;;;;;;5034390;28;20075;-69
2023/07/21 05:34:42;;;;;;;15.93;9.45;;;614.50;2432.00;;;;;;5030655;28;20030;-70
2023/07/21 05:37:11;;;;;;;13.57;10.25;;;614.70;2432.00;;;;;;5033596;28;20446;-70
2023/07/21 05:39:37;;;;;;;21.80;11.38;;;614.70;2432.00;;;;;;5033486;28;20028;-70
2023/07/21 05:42:03;;;;;;;18.50;11.90;;;614.80;2432.00;;;;;;5032940;28;20037;-71
2023/07/21 05:44:30;;;;;;;15.52;11.57;;;614.80;2432.00;;;;;;5032856;28;20017;-70
2023/07/21 05:46:55;;;;;;;15.00;11.98;;;614.90;2432.00;;;;;;5033498;28;20467;-70
2023/07/21 05:49:22;;;;;;;16.38;11.95;;;615.00;2432.00;;;;;;5029427;28;20052;-70
2023/07/21 05:51:48;;;;;;;19.77;12.23;;;615.20;2432.00;;;;;;5032663;28;20029;-71
2023/07/21 05:54:14;;;;;;;22.42;12.02;;;615.30;2432.00;;;;;;5033283;28;20034;-72
2023/07/21 05:56:40;;;;;;;17.73;12.35;;;615.30;2432.00;;;;;;5031539;28;20037;-70
2023/07/21 05:59:06;;;;;;;24.40;13.55;;;640.00;2432.00;;;;;;5032352;28;20021;-71
2023/07/21 06:01:34;;;;;;;22.38;14.38;;;640.10;2432.00;;;;;;5033289;28;20034;-70
2023/07/21 06:04:00;;;;;;;20.52;14.02;;;640.10;2432.00;;;;;;5033231;28;20116;-71
2023/07/21 06:06:25;;;;;;;16.35;13.18;;;640.10;2432.00;;;;;;5032158;28;20404;-69
2023/07/21 06:08:51;;;;;;;22.33;16.50;;;640.20;2432.00;;;;;;5033195;28;20025;-73
2023/07/21 06:11:17;;;;;;;21.92;15.10;;;640.20;2432.00;;;;;;5032014;28;20021;-69
2023/07/21 06:13:43;;;;;;;17.95;16.00;;;640.30;2432.00;;;;;;5032794;28;20496;-70
2023/07/21 06:16:08;;;;;;;27.13;17.17;;;640.50;2432.00;;;;;;5032795;28;20103;-70
2023/07/21 06:18:35;;;;;;;28.45;17.10;;;640.40;2432.00;;;;;;5030533;28;20040;-70
2023/07/21 06:21:03;;;;;;;24.75;17.25;;;640.50;2432.00;;;;;;5006668;28;20025;-70
2023/07/21 06:23:29;;;;;;;22.85;17.13;;;640.70;2432.00;;;;;;5031881;28;20045;-69
2023/07/21 06:25:55;;;;;;;23.30;17.27;;;640.70;2432.00;;;;;;5024650;28;20022;-71
2023/07/21 06:28:20;;;;;;;23.48;16.38;;;640.70;2432.00;;;;;;5032665;28;20455;-68
2023/07/21 06:30:46;;;;;;;25.83;17.85;;;640.70;2432.00;;;;;;5033565;28;20383;-68
2023/07/21 06:33:12;;;;;;;21.05;15.82;;;640.90;2432.00;;;;;;5032608;28;20479;-71
2023/07/21 06:35:38;;;;;;;23.05;16.35;;;665.70;2432.00;;;;;;5032553;28;20087;-69
2023/07/21 06:38:03;;;;;;;22.05;15.48;;;665.90;2432.00;;;;;;5032599;28;20063;-67
2023/07/21 06:40:30;;;;;;;21.05;16.20;;;666.00;2432.00;;;;;;5032857;28;20025;-68
2023/07/21 06:42:56;;;;;;;20.40;14.85;;;666.10;2432.00;;;;;;5028986;28;20055;-74
2023/07/21 06:45:22;;;;;;;22.65;15.80;;;666.40;2432.00;;;;;;5031794;28;20022;-71
2023/07/21 06:47:48;;;;;;;24.88;15.80;;;691.20;2432.00;;;;;;5032390;28;20116;-69
2023/07/21 06:50:14;;;;;;;20.48;14.88;;;691.30;2432.00;;;;;;5032533;28;20060;-67
2023/07/21 06:52:39;;;;;;;24.08;13.05;;;691.40;2432.00;;;;;;5032195;28;20493;-67
2023/07/21 06:55:06;;;;;;;26.17;13.18;;;691.30;2432.00;;;;;;5026234;28;20033;-69
2023/07/21 06:57:31;;;;;;;19.85;14.50;;;691.40;2432.00;;;;;;5032241;28;20116;-68
2023/07/21 06:59:57;;;;;;;17.98;12.38;;;691.50;2432.00;;;;;;5030961;28;20113;-76
2023/07/21 07:02:23;;;;;;;21.65;15.18;;;691.50;2432.00;;;;;;5029988;28;20064;-69
2023/07/21 07:04:51;;;;;;;17.50;12.50;;;691.60;2432.00;;;;;;5032139;28;20033;-74
2023/07/21 07:07:17;;;;;;;22.00;13.43;;;;;;;;;;5032246;28;20121;-68
2023/07/21 07:09:43;;;;;;;20.98;11.25;;;;;;;;;;5028841;28;20029;-69
2023/07/21 07:12:09;;;;;;;23.35;12.32;;;692.10;2432.00;;;;;;5031972;28;20029;-67
2023/07/21 07:14:34;;;;;;;15.20;11.43;;;692.10;2432.00;;;;;;5031881;28;20053;-69
2023/07/21 07:17:00;;;;;;;19.70;12.85;;;716.80;2432.00;;;;;;5032043;28;20029;-69
2023/07/21 07:19:26;;;;;;;12.77;9.95;;;692.10;2432.00;;;;;;5032659;28;20026;-69
2023/07/21 07:21:52;;;;;;;14.00;10.52;;;716.80;2432.00;;;;;;5031829;28;20025;-70
2023/07/21 07:24:20;;;;;;;13.75;10.38;;;692.10;2432.00;;;;;;5032283;28;20454;-70
2023/07/21 07:26:46;;;;;;;16.65;9.95;;;716.80;2432.00;;;;;;5027327;28;20570;-70
2023/07/21 07:29:12;;;;;;;15.23;8.80;;;717.00;2432.00;;;;;;5028096;28;20113;-69
2023/07/21 07:31:38;;;;;;;11.75;8.70;;;;;;;;;;5032080;28;20475;-70
2023/07/21 07:34:04;;;;;;;13.30;8.27;;;717.40;2432.00;;;;;;5028053;28;20060;-73
2023/07/21 07:36:30;;;;;;;16.85;8.57;;;717.40;2432.00;;;;;;5014053;28;20041;-71
2023/07/21 07:38:55;;;;;;;12.10;8.20;;;717.40;2432.00;;;;;;5031524;28;20021;-71
2023/07/21 07:41:21;;;;;;;16.38;8.32;;;717.50;2432.00;;;;;;5027985;28;20053;-70
2023/07/21 07:43:47;;;;;;;18.80;8.48;;;717.70;2432.00;;;;;;5031849;28;20526;-72
2023/07/21 07:46:13;;;;;;;12.57;8.18;;;742.40;2432.00;;;;;;5031975;28;20026;-69
2023/07/21 07:48:39;;;;;;;14.05;8.13;;;742.40;2432.00;;;;;;5031543;28;20048;-67
2023/07/21 07:51:06;;;;;;;10.52;7.75;;;742.40;2432.00;;;;;;5031745;28;20057;-67
2023/07/21 07:53:32;;;;;;;11.98;7.75;;;742.50;2432.00;;;;;;5031282;28;20030;-67
2023/07/21 07:55:58;;;;;;;14.75;7.95;;;742.50;2432.00;;;;;;5032025;28;20060;-72
2023/07/21 07:58:24;;;;;;;9.80;6.25;;;742.60;2432.00;;;;;;5031434;28;20468;-72
2023/07/21 08:00:55;;;;;;;12.07;7.63;;;742.80;2432.00;;;;;;5031523;28;20025;-69
2023/07/21 08:03:21;;;;;;;11.27;7.28;;;742.90;2406.40;;;;;;5031805;28;20116;-71
2023/07/21 08:05:47;;;;;;;11.63;6.72;;;743.00;2380.80;;;;;;5031762;28;20144;-71
2023/07/21 08:08:14;;;;;;;13.38;6.50;;;743.10;2329.60;;;;;;5029543;28;20491;-70
2023/07/21 08:10:41;;;;;;;11.70;6.05;;;743.10;2355.20;;;;;;5031700;28;20025;-69
2023/07/21 08:13:08;;;;;;;10.82;5.80;;;743.30;2304.00;;;;;;5034700;28;20030;-68
2023/07/21 08:15:34;;;;;;;10.57;5.47;;;743.30;2252.80;;;;;;5035160;28;20029;-70
2023/07/21 08:18:00;;;;;;;10.15;5.68;;;768.10;2304.00;;;;;;5035019;28;20040;-74
2023/07/21 08:20:25;;;;;;;9.68;5.15;;;768.00;2176.00;;;;;;5035009;28;20029;-69
2023/07/21 08:22:52;;;;;;;10.32;6.18;;;768.20;2201.60;;;;;;5031117;28;20034;-73
2023/07/21 08:25:18;;;;;;;8.90;5.75;;;768.30;2252.80;;;;;;5035862;28;20030;-73
2023/07/21 08:27:44;;;;;;;11.43;5.25;;;768.40;2201.60;;;;;;5035218;28;20415;-71
2023/07/21 08:30:11;;;;;;;8.18;5.47;;;768.30;2124.80;;;;;;5029535;28;20025;-78
2023/07/21 08:32:38;;;;;;;10.40;6.03;;;768.40;2201.60;;;;;;5033642;28;20040;-70
2023/07/21 08:35:05;;;;;;;12.15;5.95;;;768.40;2252.80;;;;;;5035075;28;20052;-69
2023/07/21 08:37:31;;;;;;;8.18;5.70;;;768.70;2227.20;;;;;;5034171;28;20490;-71
2023/07/21 08:39:57;;;;;;;10.70;4.95;;;768.70;2227.20;;;;;;5035062;28;20029;-71
2023/07/21 08:42:25;;;;;;;10.05;5.47;;;768.60;2150.40;;;;;;5033279;28;20084;-70
2023/07/21 08:44:53;;;;;;;14.55;6.43;;;768.80;2176.00;;;;;;5033497;28;20021;-75
2023/07/21 08:47:20;;;;;;;10.52;6.25;;;768.90;2227.20;;;;;;5034836;28;20033;-74
2023/07/21 08:49:46;;;;;;;11.13;6.05;;;768.90;2227.20;;;;;;5025065;28;20037;-74
2023/07/21 08:52:12;;;;;;;10.63;6.15;;;793.70;2201.60;;;;;;5034720;28;20025;-74
2023/07/21 08:54:38;;;;;;;9.00;6.03;;;793.80;2278.40;;;;;;5033186;28;20100;-73
2023/07/21 08:57:04;;;;;;;9.70;5.43;;;793.80;2227.20;;;;;;5034973;28;20478;-75
2023/07/21 08:59:29;;;;;;;9.50;5.50;;;793.90;2150.40;;;;;;5034613;28;20075;-75
2023/07/21 09:01:55;;;;;;;6.57;4.93;;;794.00;2150.40;;;;;;5017038;28;20116;-82
2023/07/21 09:04:25;;;;;;;7.63;5.40;;;793.90;2073.60;;;;;;5034591;28;20034;-70
2023/07/21 09:06:53;;;;;;;9.85;5.20;;;794.00;2124.80;;;;;;5034259;28;20029;-82
2023/07/21 09:09:20;;;;;;;9.07;6.00;;;794.00;2124.80;;;;;;5035089;28;20049;-71
2023/07/21 09:11:47;;;;;;;11.75;8.32;;;794.20;2073.60;;;;;;5034744;28;20034;-79
2023/07/21 09:14:14;;;;;;;9.55;5.90;;;794.20;2073.60;;;;;;5033898;28;20141;-79
2023/07/21 09:16:40;;;;;;;10.60;6.45;;;794.20;2022.40;;;;;;5034308;28;20064;-70
2023/07/21 09:19:06;;;;;;;12.82;6.57;;;794.30;2022.40;;;;;;5030211;28;20045;-75
2023/07/21 09:21:35;;;;;;;13.60;7.30;;;794.20;1996.80;;;;;;5034027;28;20100;-74
2023/07/21 09:24:06;;;;;;;10.38;5.50;;;794.30;1996.80;;;;;;5015242;28;20550;-79
2023/07/21 09:26:32;;;;;;;8.73;5.80;;;794.40;1971.20;;;;;;5033952;28;20067;-78
2023/07/21 09:28:58;;;;;;;11.57;6.25;;;844.80;1920.00;;;;;;5034090;28;20042;-70
2023/07/21 09:31:29;;;;;;;7.95;5.47;;;845.20;1868.80;;;;;;5032905;28;20502;-79
2023/07/21 09:34:03;;;;;;;9.88;6.15;;;870.40;1843.20;;;;;;5029808;28;20025;-78
2023/07/21 09:36:29;;;;;;;7.63;6.03;;;870.90;1715.20;;;;;;5033161;28;20062;-73
2023/07/21 09:38:55;;;;;;;10.55;6.53;;;896.30;1612.80;;;;;;5033736;28;20072;-71
2023/07/21 09:41:24;;;;;;;7.75;5.85;;;896.50;1638.40;;;;;;5033115;28;20034;-70
2023/07/21 09:43:51;;;;;;;8.95;6.18;;;896.60;1664.00;;;;;;5033608;28;20067;-72
2023/07/21 09:46:17;;;;;;;9.07;6.53;;;921.60;1612.80;;;;;;5033641;28;20086;-71
2023/07/21 09:48:44;;;;;;;9.18;5.70;;;896.90;1561.60;;;;;;5033599;28;20124;-71
2023/07/21 09:51:10;;;;;;;7.53;6.07;;;921.90;1561.60;;;;;;5033297;28;20554;-73
2023/07/21 09:53:42;;;;;;;8.73;5.53;;;921.80;1561.60;;;;;;5031602;28;20030;-75
2023/07/21 09:56:10;;;;;;;8.93;5.65;;;896.90;1536.00;;;;;;5029042;28;20036;-69
2023/07/21 09:58:41;;;;;;;9.77;5.20;;;921.70;1561.60;;;;;;5033321;28;20040;-72
2023/07/21 10:01:09;;;;;;;9.95;6.03;;;896.80;1510.40;;;;;;5029368;28;20076;-72
2023/07/21 10:03:36;;;;;;;7.38;5.28;;;896.90;1510.40;;;;;;5033209;28;20025;-74
2023/07/21 10:06:03;;;;;;;9.80;5.95;;;921.60;1536.00;;;;;;5032782;28;20017;-71
2023/07/21 10:08:33;;;;;;;9.82;5.45;;;896.90;1510.40;;;;;;5033057;28;20035;-70
2023/07/21 10:10:59;;;;;;;8.02;6.07;;;921.60;1510.40;;;;;;5033310;28;20025;-75
2023/07/21 10:13:27;;;;;;;13.63;6.18;;;896.50;1510.40;;;;;;5026504;28;20057;-72
2023/07/21 10:16:00;;;;;;;9.80;6.50;;;922.00;1510.40;;;;;;5031568;28;20021;-76
2023/07/21 10:18:26;;;;;;;7.85;5.63;;;922.00;1510.40;;;;;;5032706;28;20032;-72
2023/07/21 10:20:56;;;;;;;8.93;5.88;;;922.30;1484.80;;;;;;5033168;28;20505;-73
2023/07/21 10:23:37;;;;;;;6.90;4.85;;;947.50;1408.00;;;;;;5032919;28;20045;-80
2023/07/21 10:26:11;;;;;;;7.13;5.40;;;922.00;1433.60;;;;;;5033184;28;20102;-74
2023/07/21 10:28:46;;;;;;;9.07;5.82;;;922.40;1408.00;;;;;;5032835;28;20047;-78
2023/07/21 10:31:21;;;;;;;9.55;6.10;;;947.20;1408.00;;;;;;5029577;28;20120;-79
2023/07/21 10:34:09;;;;;;;;;;;947.70;1408.00;;;;;;5024051;28;20028;-80
2023/07/21 10:36:51;;;;;;;7.30;5.80;;;922.50;1433.60;;;;;;5029818;28;19917;-73
2023/07/21 10:39:23;;;;;;;8.55;5.90;;;947.20;1433.60;;;;;;5029811;28;20053;-72
2023/07/21 10:41:51;;;;;;;8.63;5.35;;;947.40;1408.00;;;;;;5028907;28;20124;-74
2023/07/21 10:44:17;;;;;;;8.98;6.35;;;947.20;1356.80;;;;;;5032441;28;20087;-73
2023/07/21 10:46:45;;;;;;;12.65;5.68;;;922.50;1356.80;;;;;;5033179;28;20030;-75
2023/07/21 10:49:13;;;;;;;9.48;5.80;;;947.50;1382.40;;;;;;5030426;28;20029;-75
2023/07/21 10:51:39;;;;;;;10.90;7.10;;;947.70;1382.40;;;;;;5027775;28;20076;-76
2023/07/21 10:54:06;;;;;;;8.00;5.35;;;947.90;1356.80;;;;;;5032552;28;20091;-71
2023/07/21 10:56:42;;;;;;;7.03;4.90;;;947.30;1305.60;;;;;;5032411;28;20065;-70
2023/07/21 10:59:12;;;;;;;9.95;4.68;;;948.10;1305.60;;;;;;5025467;28;20022;-83
2023/07/21 11:01:56;;;;;;;9.38;6.10;;;947.90;1331.20;;;;;;5024011;28;20025;-75
2023/07/21 11:04:23;;;;;;;10.07;6.28;;;947.20;1356.80;;;;;;5024453;28;20120;-70
2023/07/21 11:06:59;;;;;;;9.70;6.10;;;947.40;1356.80;;;;;;5032336;28;20025;-73
2023/07/21 11:09:26;;;;;;;9.57;6.07;;;947.90;1331.20;;;;;;5032239;28;20156;-72
2023/07/21 11:11:55;;;;;;;10.63;5.90;;;972.90;1331.20;;;;;;5028549;28;20029;-77
2023/07/21 11:14:24;;;;;;;7.50;6.10;;;972.90;1331.20;;;;;;5024107;28;20503;-70
2023/07/21 11:17:03;;;;;;;8.30;6.15;;;948.10;1331.20;;;;;;5032808;28;20468;-70
2023/07/21 11:19:32;;;;;;;15.98;7.97;;;973.00;1356.80;;;;;;5032202;28;20041;-70
2023/07/21 11:21:57;;;;;;;16.15;8.07;;;973.20;1280.00;;;;;;5031388;28;20193;-72
2023/07/21 11:24:25;;;;;;;14.63;5.85;;;973.00;1254.40;;;;;;5032336;28;20053;-70
2023/07/21 11:26:58;;;;;;;12.20;5.53;;;973.10;1228.80;;;;;;5023936;28;20060;-74
2023/07/21 11:29:26;;;;;;;8.93;5.50;;;973.20;1228.80;;;;;;5032086;28;20025;-74
2023/07/21 11:31:52;;;;;;;8.20;5.95;;;973.10;1254.40;;;;;;5032173;28;20051;-81
2023/07/21 11:34:28;;;;;;;8.02;6.50;;;973.30;1254.40;;;;;;5032230;28;20808;-71
2023/07/21 11:36:57;;;;;;;8.32;6.65;;;973.10;1280.00;;;;;;5032212;28;20356;-71
2023/07/21 11:39:23;;;;;;;9.80;6.32;;;973.00;1280.00;;;;;;5031727;28;20430;-71
2023/07/21 11:41:53;;;;;;;8.88;6.03;;;948.00;1305.60;;;;;;5031848;28;20073;-69
2023/07/21 11:44:27;;;;;;;8.48;6.68;;;973.30;1305.60;;;;;;5031888;28;20065;-70
2023/07/21 11:46:57;;;;;;;10.27;7.18;;;973.00;1280.00;;;;;;5032093;28;20379;-71
2023/07/21 11:49:25;;;;;;;13.38;6.10;;;947.90;1305.60;;;;;;5035766;28;20060;-71
2023/07/21 11:51:52;;;;;;;9.35;6.80;;;947.30;1331.20;;;;;;5035879;28;20557;-73
2023/07/21 11:54:26;;;;;;;14.05;5.50;;;922.30;1356.80;;;;;;5035744;28;20510;-80
2023/07/21 11:56:52;;;;;;;8.00;5.38;;;922.30;1305.60;;;;;;5035668;28;20026;-70
2023/07/21 11:59:19;;;;;;;12.60;6.63;;;922.40;1305.60;;;;;;5035589;28;20064;-72
2023/07/21 12:01:46;;;;;;;14.48;6.75;;;922.10;1356.80;;;;;;5035638;28;20037;-77
2023/07/21 12:04:12;;;;;;;16.45;6.10;;;921.80;1382.40;;;;;;5035484;28;20076;-70
2023/07/21 12:06:39;;;;;;;14.48;7.03;;;921.70;1356.80;;;;;;5035800;28;20028;-70
2023/07/21 12:09:06;;;;;;;11.68;6.07;;;921.70;1356.80;;;;;;5030971;28;20064;-72
2023/07/21 12:11:34;;;;;;;9.82;7.50;;;921.80;1356.80;;;;;;5036039;28;20032;-69